Time;durP1;ratioP1;P1;durP2;ratioP2;P2;SDS_P1;SDS_P2;PMS_P1;PMS_P2;Temp;Humidity;BMP_temperature;BMP_pressure;BME280_temperature;BME280_humidity;BME280_pressure;Samples;Min_cycle;Max_cycle;Signal;HPM_P1;HPM_P2
2023/04/10 00:02:04;;;;;;;;;;;3.50;99.90;;;;;;5071955;28;19967;-63
2023/04/10 00:04:36;;;;;;;;;;;3.50;99.90;;;;;;5068608;28;19927;-62
2023/04/10 00:07:07;;;;;;;;;;;3.50;99.90;;;;;;5056243;28;20347;-62
2023/04/10 00:09:35;;;;;;;;;;;3.40;99.90;;;;;;5071402;28;19921;-62
2023/04/10 00:12:06;;;;;;;;;;;3.40;99.90;;;;;;5071513;28;19920;-62
2023/04/10 00:14:38;;;;;;;;;;;3.30;99.90;;;;;;5071403;28;20100;-62
2023/04/10 00:17:10;;;;;;;;;;;3.20;99.90;;;;;;5071392;28;19947;-62
2023/04/10 00:19:41;;;;;;;;;;;3.20;99.90;;;;;;5052889;28;19924;-62
2023/04/10 00:22:13;;;;;;;;;;;3.10;99.90;;;;;;5071249;28;19920;-63
2023/04/10 00:24:40;;;;;;;;;;;3.10;99.90;;;;;;5070064;28;19920;-62
2023/04/10 00:27:11;;;;;;;;;;;3.00;99.90;;;;;;5071132;28;19982;-62
2023/04/10 00:29:40;;;;;;;;;;;3.00;99.90;;;;;;5069778;28;20015;-62
2023/04/10 00:32:11;;;;;;;;;;;3.10;99.90;;;;;;5063550;28;19927;-63
2023/04/10 00:34:43;;;;;;;;;;;3.10;99.90;;;;;;5071124;28;20017;-62
2023/04/10 00:37:15;;;;;;;;;;;3.10;99.90;;;;;;5050960;28;19931;-62
2023/04/10 00:39:46;;;;;;;;;;;3.10;99.90;;;;;;5069005;28;19924;-62
2023/04/10 00:42:19;;;;;;;;;;;3.00;99.90;;;;;;5053380;28;19924;-62
2023/04/10 00:44:50;;;;;;;;;;;3.00;99.90;;;;;;5052959;28;20347;-63
2023/04/10 00:47:22;;;;;;;;;;;2.80;99.90;;;;;;5069409;28;19928;-62
2023/04/10 00:49:54;;;;;;;;;;;2.80;99.90;;;;;;5068932;28;20026;-62
2023/04/10 00:52:26;;;;;;;;;;;2.70;99.90;;;;;;5052456;28;19924;-62
2023/04/10 00:54:58;;;;;;;;;;;2.70;99.90;;;;;;5071026;28;20307;-62
2023/04/10 00:57:29;;;;;;;;;;;2.50;99.90;;;;;;5061000;28;19920;-62
2023/04/10 00:59:57;;;;;;;;;;;2.40;99.90;;;;;;5069337;28;20438;-62
2023/04/10 01:02:29;;;;;;;;;;;2.30;99.90;;;;;;5059450;28;19942;-62
2023/04/10 01:05:01;;;;;;;;;;;2.30;99.90;;;;;;5051378;28;20281;-62
2023/04/10 01:07:40;;;;;;;;;;;2.30;99.90;;;;;;5068960;28;19978;-62
2023/04/10 01:10:26;;;;;;;;;;;2.30;99.90;;;;;;5053690;28;19990;-63
2023/04/10 01:13:14;;;;;;;;;;;2.30;99.90;;;;;;5072559;28;19932;-62
2023/04/10 01:15:46;;;;;;;;;;;2.30;99.90;;;;;;5054563;28;19924;-62
2023/04/10 01:18:21;;;;;;;;;;;2.30;99.90;;;;;;5074089;28;19989;-62
2023/04/10 01:20:55;;;;;;;;;;;2.30;99.90;;;;;;5073410;28;19924;-62
2023/04/10 01:23:42;;;;;;;;;;;2.30;99.90;;;;;;5072543;28;19955;-62
2023/04/10 01:26:18;;;;;;;;;;;2.40;99.90;;;;;;5053726;28;19924;-62
2023/04/10 01:28:56;;;;;;;;;;;2.40;99.90;;;;;;5055866;28;20019;-62
2023/04/10 01:31:33;;;;;;;;;;;2.40;99.90;;;;;;5055869;28;19921;-62
2023/04/10 01:34:10;;;;;;;;;;;2.30;99.90;;;;;;5061988;28;20285;-62
2023/04/10 01:36:47;;;;;;;;;;;2.30;99.90;;;;;;5052678;28;20339;-62
2023/04/10 01:39:20;;;;;;;;;;;2.30;99.90;;;;;;5072372;28;19924;-62
2023/04/10 01:41:53;;;;;;;;;;;2.20;99.90;;;;;;5053870;28;19921;-62
2023/04/10 01:44:27;;;;;;;;;;;2.30;99.90;;;;;;5055725;28;19928;-62
2023/04/10 01:47:00;;;;;;;;;;;2.30;99.90;;;;;;5072056;28;19924;-62
2023/04/10 01:49:31;;;;;;;;;;;2.30;99.90;;;;;;5073487;28;19963;-63
2023/04/10 01:52:05;;;;;;;;;;;2.30;99.90;;;;;;5068902;28;19925;-63
2023/04/10 01:54:37;;;;;;;;;;;2.40;99.90;;;;;;5069190;28;20384;-62
2023/04/10 01:57:14;;;;;;;;;;;2.40;99.90;;;;;;5055577;28;20335;-62
2023/04/10 01:59:55;;;;;;;;;;;2.40;99.90;;;;;;5071990;28;20482;-62
2023/04/10 02:02:22;;;;;;;;;;;2.40;99.90;;;;;;5071172;28;19924;-62
2023/04/10 02:04:54;;;;;;;;;;;2.30;99.90;;;;;;5055426;28;19943;-62
2023/04/10 02:07:34;;;;;;;;;;;2.10;99.90;;;;;;5055919;28;19974;-62
2023/04/10 02:10:08;;;;;;;;;;;2.00;99.90;;;;;;5055715;28;19990;-63
2023/04/10 02:12:44;;;;;;;;;;;1.80;99.90;;;;;;5071202;28;19920;-62
2023/04/10 02:15:18;;;;;;;;;;;1.70;99.90;;;;;;5069797;28;20405;-62
2023/04/10 02:17:50;;;;;;;;;;;1.70;99.90;;;;;;5038887;28;19928;-62
2023/04/10 02:20:23;;;;;;;;;;;1.70;99.90;;;;;;5072970;28;20371;-62
2023/04/10 02:22:55;;;;;;;;;;;1.60;99.90;;;;;;5054379;28;20415;-62
2023/04/10 02:25:29;;;;;;;;;;;1.60;99.90;;;;;;5054460;28;19924;-62
2023/04/10 02:28:05;;;;;;;;;;;1.60;99.90;;;;;;5070349;28;19920;-62
2023/04/10 02:30:38;;;;;;;;;;;1.60;99.90;;;;;;5070583;28;20011;-63
2023/04/10 02:33:11;;;;;;;;;;;1.60;99.90;;;;;;5064605;28;19982;-62
2023/04/10 02:35:43;;;;;;;;;;;1.60;99.90;;;;;;5049735;28;19928;-62
2023/04/10 02:38:10;;;;;;;;;;;1.60;99.90;;;;;;5072313;28;20010;-63
2023/04/10 02:40:41;;;;;;;;;;;1.50;99.90;;;;;;5071466;28;19921;-62
2023/04/10 02:43:11;;;;;;;;;;;1.50;99.90;;;;;;5071334;28;20416;-62
2023/04/10 02:45:43;;;;;;;;;;;1.50;99.90;;;;;;5054262;28;20023;-62
2023/04/10 02:48:21;;;;;;;;;;;1.50;99.90;;;;;;5054380;28;19924;-62
2023/04/10 02:50:57;;;;;;;;;;;1.50;99.90;;;;;;5054372;28;20377;-63
2023/04/10 02:53:26;;;;;;;;;;;1.50;99.90;;;;;;5071029;28;20348;-63
2023/04/10 02:55:59;;;;;;;;;;;1.60;99.90;;;;;;5069538;28;19929;-62
2023/04/10 02:58:26;;;;;;;;;;;1.60;99.90;;;;;;5070715;28;19924;-62
2023/04/10 03:00:59;;;;;;;;;;;1.60;99.90;;;;;;5070147;28;19924;-63
2023/04/10 03:03:38;;;;;;;;;;;1.50;99.90;;;;;;5051472;28;19921;-63
2023/04/10 03:06:11;;;;;;;;;;;1.50;99.90;;;;;;5070882;28;19924;-62
2023/04/10 03:08:44;;;;;;;;;;;1.40;99.90;;;;;;5038208;28;19969;-62
2023/04/10 03:11:16;;;;;;;;;;;1.40;99.90;;;;;;5054118;28;20412;-62
2023/04/10 03:13:48;;;;;;;;;;;1.30;99.90;;;;;;5053930;28;19925;-62
2023/04/10 03:16:20;;;;;;;;;;;1.40;99.90;;;;;;5051579;28;20019;-62
2023/04/10 03:18:52;;;;;;;;;;;1.30;99.90;;;;;;5064534;28;19973;-62
2023/04/10 03:21:24;;;;;;;;;;;1.30;99.90;;;;;;5054308;28;20389;-62
2023/04/10 03:23:55;;;;;;;;;;;1.40;99.90;;;;;;5054328;28;19920;-62
2023/04/10 03:26:27;;;;;;;;;;;1.40;99.90;;;;;;5069979;28;19924;-62
2023/04/10 03:28:59;;;;;;;;;;;1.40;99.90;;;;;;5072154;28;20423;-62
2023/04/10 03:31:33;;;;;;;;;;;1.40;99.90;;;;;;5054205;28;19920;-62
2023/04/10 03:34:00;;;;;;;;;;;1.40;99.90;;;;;;5050127;28;19920;-62
2023/04/10 03:36:32;;;;;;;;;;;1.50;99.90;;;;;;5051875;28;19925;-62
2023/04/10 03:39:04;;;;;;;;;;;1.50;99.90;;;;;;5050437;28;19931;-62
2023/04/10 03:41:35;;;;;;;;;;;1.50;99.90;;;;;;5070835;28;20296;-62
2023/04/10 03:44:07;;;;;;;;;;;1.40;99.90;;;;;;5062766;28;19931;-62
2023/04/10 03:46:39;;;;;;;;;;;1.40;99.90;;;;;;5067666;28;20445;-62
2023/04/10 03:49:11;;;;;;;;;;;1.40;99.90;;;;;;5053746;28;19921;-62
2023/04/10 03:51:43;;;;;;;;;;;1.40;99.90;;;;;;5053747;28;20741;-62
2023/04/10 03:54:15;;;;;;;;;;;1.40;99.90;;;;;;5068142;28;20385;-62
2023/04/10 03:56:41;;;;;;;;;;;1.40;99.90;;;;;;5066327;28;19943;-62
2023/04/10 03:59:08;;;;;;;;;;;1.40;99.90;;;;;;5070205;28;19993;-62
2023/04/10 04:01:40;;;;;;;;;;;1.30;99.90;;;;;;5053759;28;20407;-62
2023/04/10 04:04:12;;;;;;;;;;;1.30;99.90;;;;;;5069430;28;19925;-62
2023/04/10 04:06:58;;;;;;;;;;;1.30;99.90;;;;;;5053452;28;19920;-62
2023/04/10 04:09:56;;;;;;;;;;;1.20;99.90;;;;;;5067192;28;20404;-63
2023/04/10 04:12:44;;;;;;;;;;;1.20;99.90;;;;;;5068042;28;20308;-62
2023/04/10 04:15:37;;;;;;;;;;;1.10;99.90;;;;;;5069280;28;19924;-62
2023/04/10 04:18:27;;;;;;;;;;;1.10;99.90;;;;;;5071358;28;19927;-62
2023/04/10 04:21:17;;;;;;;;;;;1.10;99.90;;;;;;5071378;28;20422;-62
2023/04/10 04:24:01;;;;;;;;;;;1.10;99.90;;;;;;5065992;28;20347;-62
2023/04/10 04:26:51;;;;;;;;;;;1.10;99.90;;;;;;5053187;28;19955;-63
2023/04/10 04:29:36;;;;;;;;;;;1.10;99.90;;;;;;5069476;28;20030;-62
2023/04/10 04:32:28;;;;;;;;;;;1.10;99.90;;;;;;5060238;28;20023;-62
2023/04/10 04:35:10;;;;;;;;;;;1.10;99.90;;;;;;5054670;28;20380;-62
2023/04/10 04:38:08;;;;;;;;;;;1.10;99.90;;;;;;5068724;28;19921;-62
2023/04/10 04:41:12;;;;;;;;;;;1.00;99.90;;;;;;5036589;28;19921;-62
2023/04/10 04:44:10;;;;;;;;;;;1.00;99.90;;;;;;5053071;28;19926;-62
2023/04/10 04:47:17;;;;;;;;;;;1.00;99.90;;;;;;5012836;28;19929;-63
2023/04/10 04:49:57;;;;;;;;;;;0.90;99.90;;;;;;5050039;28;19920;-62
2023/04/10 04:52:49;;;;;;;;;;;0.90;99.90;;;;;;5073784;28;19924;-62
2023/04/10 04:55:39;;;;;;;;;;;0.90;99.90;;;;;;5069678;28;19978;-62
2023/04/10 04:58:30;;;;;;;;;;;1.00;99.90;;;;;;5074998;28;20062;-62
2023/04/10 05:01:23;;;;;;;;;;;1.00;99.90;;;;;;5066970;28;20502;-63
2023/04/10 05:04:19;;;;;;;;;;;1.00;99.90;;;;;;5071638;28;20388;-62
2023/04/10 05:07:02;;;;;;;;;;;0.90;99.90;;;;;;5052418;28;19921;-62
2023/04/10 05:09:34;;;;;;;;;;;0.90;99.90;;;;;;5067006;28;19920;-62
2023/04/10 05:12:35;;;;;;;;;;;0.90;99.90;;;;;;5063802;28;19920;-62
2023/04/10 05:15:15;;;;;;;;;;;0.90;99.90;;;;;;5068486;28;19920;-62
2023/04/10 05:18:04;;;;;;;;;;;0.90;99.90;;;;;;5056619;28;19920;-62
2023/04/10 05:20:53;;;;;;;;;;;1.00;99.90;;;;;;5056478;28;19924;-62
2023/04/10 05:23:41;;;;;;;;;;;1.00;99.90;;;;;;5056634;28;19931;-63
2023/04/10 05:26:28;;;;;;;;;;;1.00;99.90;;;;;;5073081;28;19927;-63
2023/04/10 05:29:25;;;;;;;;;;;1.00;99.90;;;;;;5072440;28;19921;-62
2023/04/10 05:32:08;;;;;;;;;;;1.10;99.90;;;;;;5072102;28;20309;-62
2023/04/10 05:35:06;;;;;;;;;;;1.10;99.90;;;;;;5076845;28;20006;-63
2023/04/10 05:37:41;;;;;;;;;;;1.20;99.90;;;;;;5047666;28;19977;-63
2023/04/10 05:40:32;;;;;;;;;;;1.20;99.90;;;;;;5043872;28;19924;-62
2023/04/10 05:43:22;;;;;;;;;;;1.20;99.90;;;;;;5073069;28;19977;-62
2023/04/10 05:45:57;;;;;;;;;;;1.30;99.90;;;;;;5072572;28;19924;-63
2023/04/10 05:48:49;;;;;;;;;;;1.30;99.90;;;;;;5072672;28;20348;-62
2023/04/10 05:51:33;;;;;;;;;;;1.40;99.90;;;;;;5073055;28;19956;-62
2023/04/10 05:54:17;;;;;;;;;;;1.50;99.90;;;;;;5072694;28;19924;-62
2023/04/10 05:57:11;;;;;;;;;;;1.50;99.90;;;;;;5071420;28;20388;-62
2023/04/10 05:59:55;;;;;;;;;;;1.60;99.90;;;;;;5040580;28;19920;-62
2023/04/10 06:02:39;;;;;;;;;;;1.70;99.90;;;;;;5073902;28;19928;-63
2023/04/10 06:05:19;;;;;;;;;;;1.70;99.90;;;;;;5054860;28;19974;-62
2023/04/10 06:07:47;;;;;;;;;;;1.80;99.90;;;;;;5072227;28;19920;-62
2023/04/10 06:10:18;;;;;;;;;;;1.80;99.90;;;;;;5073954;28;19928;-63
2023/04/10 06:12:51;;;;;;;;;;;1.80;99.90;;;;;;5055633;28;19920;-62
2023/04/10 06:15:24;;;;;;;;;;;1.80;99.90;;;;;;5072213;28;19932;-62
2023/04/10 06:17:52;;;;;;;;;;;1.90;99.90;;;;;;5061401;28;19920;-62
2023/04/10 06:20:24;;;;;;;;;;;1.80;99.90;;;;;;5072428;28;20343;-63
2023/04/10 06:22:51;;;;;;;;;;;1.90;99.90;;;;;;5072450;28;19928;-63
2023/04/10 06:25:23;;;;;;;;;;;2.00;99.90;;;;;;5073626;28;19931;-63
2023/04/10 06:27:55;;;;;;;;;;;2.00;99.90;;;;;;5073067;28;19924;-62
2023/04/10 06:30:27;;;;;;;;;;;2.10;99.90;;;;;;5072943;28;19927;-62
2023/04/10 06:33:00;;;;;;;;;;;2.20;99.90;;;;;;5055295;28;19924;-62
2023/04/10 06:35:35;;;;;;;;;;;2.20;99.90;;;;;;5069467;28;19921;-63
2023/04/10 06:38:07;;;;;;;;;;;2.30;99.90;;;;;;5055177;28;19974;-62
2023/04/10 06:40:39;;;;;;;;;;;2.40;99.90;;;;;;5055259;28;20393;-62
2023/04/10 06:43:11;;;;;;;;;;;2.50;99.90;;;;;;5071904;28;19920;-62
2023/04/10 06:45:44;;;;;;;;;;;2.50;99.90;;;;;;5069928;28;20380;-62
2023/04/10 06:48:15;;;;;;;;;;;2.60;99.90;;;;;;5072945;28;20385;-62
2023/04/10 06:50:42;;;;;;;;;;;2.70;99.90;;;;;;5072924;28;19931;-63
2023/04/10 06:53:09;;;;;;;;;;;2.80;99.90;;;;;;5054863;28;19920;-63
2023/04/10 06:55:41;;;;;;;;;;;2.90;99.90;;;;;;5072931;28;19920;-62
2023/04/10 06:58:08;;;;;;;;;;;3.00;99.90;;;;;;5072503;28;19974;-62
2023/04/10 07:00:34;;;;;;;;;;;3.20;99.90;;;;;;5054866;28;19949;-62
2023/04/10 07:03:06;;;;;;;;;;;3.50;99.90;;;;;;5055516;28;19977;-62
2023/04/10 07:05:33;;;;;;;;;;;3.80;99.90;;;;;;5072712;28;19927;-62
2023/04/10 07:08:05;;;;;;;;;;;4.20;99.90;;;;;;5054398;28;20412;-63
2023/04/10 07:10:36;;;;;;;;;;;4.50;99.90;;;;;;5072578;28;19924;-63
2023/04/10 07:13:08;;;;;;;;;;;4.80;99.90;;;;;;5069958;28;19928;-63
2023/04/10 07:15:39;;;;;;;;;;;5.00;99.90;;;;;;5072542;28;19978;-62
2023/04/10 07:18:11;;;;;;;;;;;5.20;99.90;;;;;;5071362;28;19920;-63
2023/04/10 07:20:43;;;;;;;;;;;5.40;99.90;;;;;;5072441;28;19966;-63
2023/04/10 07:23:15;;;;;;;;;;;5.60;99.90;;;;;;5067969;28;19928;-63
2023/04/10 07:25:41;;;;;;;;;;;5.80;99.90;;;;;;5072308;28;19924;-64
2023/04/10 07:28:08;;;;;;;;;;;6.00;99.90;;;;;;5071916;28;19924;-63
2023/04/10 07:30:40;;;;;;;;;;;6.10;99.90;;;;;;5054756;28;19924;-63
2023/04/10 07:33:06;;;;;;;;;;;6.20;99.90;;;;;;5070017;28;20384;-63
2023/04/10 07:35:38;;;;;;;;;;;6.40;99.90;;;;;;5067663;28;19987;-63
2023/04/10 07:38:10;;;;;;;;;;;6.50;99.90;;;;;;5071821;28;19920;-63
2023/04/10 07:40:42;;;;;;;;;;;6.60;99.90;;;;;;5070444;28;19931;-63
2023/04/10 07:43:09;;;;;;;;;;;6.70;99.90;;;;;;5063833;28;19924;-63
2023/04/10 07:45:40;;;;;;;;;;;6.80;99.90;;;;;;5053400;28;19924;-63
2023/04/10 07:48:12;;;;;;;;;;;7.00;99.90;;;;;;5070505;28;19931;-63
2023/04/10 07:50:44;;;;;;;;;;;7.10;99.90;;;;;;5068882;28;20415;-63
2023/04/10 07:53:11;;;;;;;;;;;7.20;99.90;;;;;;5071682;28;19924;-62
2023/04/10 07:55:42;;;;;;;;;;;7.40;99.90;;;;;;5069059;28;19924;-63
2023/04/10 07:58:14;;;;;;;;;;;7.50;99.90;;;;;;5069683;28;19973;-63
2023/04/10 08:00:46;;;;;;;;;;;7.70;99.90;;;;;;5046050;28;19981;-63
2023/04/10 08:03:17;;;;;;;;;;;7.80;99.90;;;;;;5068962;28;19970;-63
2023/04/10 08:05:49;;;;;;;;;;;7.90;99.90;;;;;;5071345;28;19930;-63
2023/04/10 08:08:21;;;;;;;;;;;8.00;99.90;;;;;;5071191;28;19932;-63
2023/04/10 08:10:52;;;;;;;;;;;8.10;99.90;;;;;;5052714;28;19920;-63
2023/04/10 08:13:19;;;;;;;;;;;8.30;99.90;;;;;;5069041;28;19978;-63
2023/04/10 08:15:51;;;;;;;;;;;8.40;99.90;;;;;;5066142;28;20400;-63
2023/04/10 08:18:22;;;;;;;;;;;8.50;99.90;;;;;;5068295;28;20415;-63
2023/04/10 08:20:54;;;;;;;;;;;8.60;99.90;;;;;;5065817;28;20389;-63
2023/04/10 08:23:21;;;;;;;;;;;8.70;99.90;;;;;;5070435;28;19932;-63
2023/04/10 08:25:53;;;;;;;;;;;8.80;99.90;;;;;;5065128;28;19924;-64
2023/04/10 08:28:24;;;;;;;;;;;8.90;99.90;;;;;;5066776;28;20439;-63
2023/04/10 08:30:56;;;;;;;;;;;8.90;99.90;;;;;;5069491;28;19924;-63
2023/04/10 08:33:27;;;;;;;;;;;9.00;99.90;;;;;;5068779;28;19939;-63
2023/04/10 08:35:59;;;;;;;;;;;9.20;99.90;;;;;;5066010;28;19924;-63
2023/04/10 08:38:31;;;;;;;;;;;9.30;99.90;;;;;;5070335;28;20293;-63
2023/04/10 08:40:57;;;;;;;;;;;9.50;99.90;;;;;;5052025;28;20362;-63
2023/04/10 08:43:29;;;;;;;;;;;9.60;99.90;;;;;;5069933;28;20393;-63
2023/04/10 08:46:01;;;;;;;;;;;9.70;99.90;;;;;;5044957;28;19928;-63
2023/04/10 08:48:52;;;;;;;;;;;9.80;99.90;;;;;;5067093;28;19925;-63
2023/04/10 08:51:27;;;;;;;;;;;10.00;99.90;;;;;;5068361;28;19970;-63
2023/04/10 08:53:57;;;;;;;;;;;10.10;99.90;;;;;;5065371;28;19920;-63
2023/04/10 08:56:30;;;;;;;;;;;10.40;99.90;;;;;;5034566;28;19946;-63
2023/04/10 08:59:02;;;;;;;;;;;10.50;99.90;;;;;;5063637;28;19924;-63
2023/04/10 09:01:29;;;;;;;;;;;10.60;99.90;;;;;;5063110;28;19996;-63
2023/04/10 09:04:01;;;;;;;;;;;10.70;99.90;;;;;;5066418;28;19924;-63
2023/04/10 09:06:33;;;;;;;;;;;10.90;99.90;;;;;;5057551;28;20338;-63
2023/04/10 09:09:05;;;;;;;;;;;11.00;99.90;;;;;;5063820;28;19920;-63
2023/04/10 09:11:55;;;;;;;;;;;11.00;99.90;;;;;;5050035;28;19921;-63
2023/04/10 09:14:22;;;;;;;;;;;11.20;99.90;;;;;;5068342;28;19924;-63
2023/04/10 09:17:09;;;;;;;;;;;11.30;99.90;;;;;;5068616;28;19921;-63
2023/04/10 09:19:41;;;;;;;;;;;11.30;99.90;;;;;;5066401;28;19924;-63
2023/04/10 09:22:13;;;;;;;;;;;11.40;99.90;;;;;;5065733;28;19920;-63
2023/04/10 09:24:45;;;;;;;;;;;11.50;99.90;;;;;;5049192;28;19924;-63
2023/04/10 09:27:26;;;;;;;;;;;11.60;99.90;;;;;;5064166;28;19927;-63
2023/04/10 09:29:58;;;;;;;;;;;11.70;99.90;;;;;;5066841;28;19924;-63
2023/04/10 09:32:43;;;;;;;;;;;11.80;99.90;;;;;;5068159;28;19925;-63
2023/04/10 09:35:15;;;;;;;;;;;12.00;99.90;;;;;;5052124;28;20445;-63
2023/04/10 09:37:47;;;;;;;;;;;12.10;99.90;;;;;;5069543;28;19928;-63
2023/04/10 09:40:25;;;;;;;;;;;12.20;99.90;;;;;;5070974;28;19920;-63
2023/04/10 09:42:54;;;;;;;;;;;12.30;99.90;;;;;;5071292;28;19927;-63
2023/04/10 09:45:45;;;;;;;;;;;12.40;99.90;;;;;;5071323;28;19920;-63
2023/04/10 09:48:17;;;;;;;;;;;12.50;99.90;;;;;;5053406;28;19924;-63
2023/04/10 09:50:48;;;;;;;;;;;12.50;99.90;;;;;;5070131;28;19925;-63
2023/04/10 09:53:20;;;;;;;;;;;12.60;99.90;;;;;;5052197;28;19925;-63
2023/04/10 09:55:52;;;;;;;;;;;12.70;99.90;;;;;;5071322;28;19970;-63
2023/04/10 09:58:25;;;;;;;;;;;12.70;99.90;;;;;;5050292;28;20288;-63
2023/04/10 10:00:57;;;;;;;;;;;12.80;99.60;;;;;;5064850;28;20377;-63
2023/04/10 10:03:28;;;;;;;;;;;12.80;99.10;;;;;;5067562;28;20477;-63
2023/04/10 10:06:00;;;;;;;;;;;13.00;99.40;;;;;;5052829;28;19924;-63
2023/04/10 10:08:33;;;;;;;;;;;13.10;97.70;;;;;;5069125;28;19920;-63
2023/04/10 10:11:08;;;;;;;;;;;13.10;98.20;;;;;;5069996;28;19936;-63
2023/04/10 10:13:43;;;;;;;;;;;13.20;95.90;;;;;;5068794;28;19924;-63
2023/04/10 10:16:20;;;;;;;;;;;13.30;95.80;;;;;;5072090;28;19924;-63
2023/04/10 10:18:52;;;;;;;;;;;13.30;95.60;;;;;;5067392;28;19929;-63
2023/04/10 10:21:25;;;;;;;;;;;13.30;95.60;;;;;;5073387;28;19924;-63
2023/04/10 10:23:58;;;;;;;;;;;13.40;96.40;;;;;;5073500;28;19940;-63
2023/04/10 10:26:30;;;;;;;;;;;13.60;94.90;;;;;;5070322;28;19924;-63
2023/04/10 10:28:57;;;;;;;;;;;13.60;91.70;;;;;;5069374;28;19924;-64
2023/04/10 10:31:32;;;;;;;;;;;13.60;91.30;;;;;;5069793;28;19921;-63
2023/04/10 10:34:06;;;;;;;;;;;13.70;93.00;;;;;;5066095;28;20364;-63
2023/04/10 10:36:38;;;;;;;;;;;13.90;93.60;;;;;;5071665;28;19931;-63
2023/04/10 10:39:19;;;;;;;;;;;14.00;93.10;;;;;;5053374;28;19986;-63
2023/04/10 10:41:50;;;;;;;;;;;14.20;91.90;;;;;;5071673;28;20313;-63
2023/04/10 10:44:27;;;;;;;;;;;14.10;90.90;;;;;;5070919;28;19925;-63
2023/04/10 10:47:06;;;;;;;;;;;14.20;88.10;;;;;;5068914;28;19924;-63
2023/04/10 10:49:55;;;;;;;;;;;14.30;83.90;;;;;;5068587;28;19928;-63
2023/04/10 10:52:41;;;;;;;;;;;14.30;80.80;;;;;;5052886;28;19924;-63
2023/04/10 10:55:24;;;;;;;;;;;14.40;81.00;;;;;;5066699;28;20404;-63
2023/04/10 10:57:57;;;;;;;;;;;14.50;81.90;;;;;;5066782;28;19924;-63
2023/04/10 11:00:48;;;;;;;;;;;14.60;85.40;;;;;;5071474;28;19920;-63
2023/04/10 11:03:19;;;;;;;;;;;14.70;83.40;;;;;;5069989;28;19924;-63
2023/04/10 11:06:06;;;;;;;;;;;14.70;82.20;;;;;;5070777;28;19924;-63
2023/04/10 11:08:32;;;;;;;;;;;14.70;80.60;;;;;;5064438;28;20431;-63
2023/04/10 11:11:04;;;;;;;;;;;14.80;83.70;;;;;;5069485;28;20308;-63
2023/04/10 11:13:37;;;;;;;;;;;14.80;84.30;;;;;;5069157;28;19924;-63
2023/04/10 11:16:10;;;;;;;;;;;15.00;83.00;;;;;;5070716;28;19924;-63
2023/04/10 11:18:47;;;;;;;;;;;15.20;82.20;;;;;;5063918;28;19920;-63
2023/04/10 11:21:14;;;;;;;;;;;15.30;78.40;;;;;;5066337;28;20301;-63
2023/04/10 11:23:54;;;;;;;;;;;15.40;76.50;;;;;;5046878;28;19924;-64
2023/04/10 11:26:32;;;;;;;;;;;15.40;77.00;;;;;;5070496;28;19932;-64
2023/04/10 11:29:16;;;;;;;;;;;15.40;77.50;;;;;;5065003;28;19977;-63
2023/04/10 11:32:03;;;;;;;;;;;15.40;76.20;;;;;;5052571;28;19928;-63
2023/04/10 11:34:42;;;;;;;;;;;15.40;77.00;;;;;;5065100;28;19920;-64
2023/04/10 11:37:09;;;;;;;;;;;15.50;76.20;;;;;;5068324;28;19920;-63
2023/04/10 11:39:40;;;;;;;;;;;15.50;72.60;;;;;;5064799;28;19932;-63
2023/04/10 11:42:10;;;;;;;;;;;15.60;75.30;;;;;;5069463;28;19928;-63
2023/04/10 11:44:42;;;;;;;;;;;15.60;74.90;;;;;;5050263;28;20019;-63
2023/04/10 11:47:13;;;;;;;;;;;15.70;76.10;;;;;;5069189;28;20434;-63
2023/04/10 11:49:52;;;;;;;;;;;15.80;76.40;;;;;;5067349;28;19930;-63
2023/04/10 11:52:24;;;;;;;;;;;15.70;72.20;;;;;;5052209;28;19924;-63
2023/04/10 11:54:56;;;;;;;;;;;15.80;74.10;;;;;;5070209;28;20384;-63
2023/04/10 11:57:23;;;;;;;;;;;15.90;74.20;;;;;;5068909;28;19924;-63
2023/04/10 11:59:55;;;;;;;;;;;16.00;75.20;;;;;;5050826;28;20347;-63
2023/04/10 12:02:26;;;;;;;;;;;16.10;73.50;;;;;;5068624;28;19970;-63
2023/04/10 12:04:58;;;;;;;;;;;16.20;75.10;;;;;;5048670;28;19928;-63
2023/04/10 12:07:30;;;;;;;;;;;16.40;73.40;;;;;;5069102;28;19924;-62
2023/04/10 12:10:02;;;;;;;;;;;16.40;71.30;;;;;;5070846;28;19924;-63
2023/04/10 12:12:37;;;;;;;;;;;16.50;70.60;;;;;;5067885;28;20365;-63
2023/04/10 12:15:25;;;;;;;;;;;16.50;71.70;;;;;;5068691;28;20388;-63
2023/04/10 12:17:57;;;;;;;;;;;16.60;73.20;;;;;;5070531;28;20393;-63
2023/04/10 12:20:29;;;;;;;;;;;16.70;72.00;;;;;;5053157;28;19927;-63
2023/04/10 12:23:02;;;;;;;;;;;16.80;71.30;;;;;;5063067;28;20018;-63
2023/04/10 12:25:29;;;;;;;;;;;16.70;68.40;;;;;;5071412;28;19928;-63
2023/04/10 12:27:55;;;;;;;;;;;16.80;67.40;;;;;;5067087;28;19927;-63
2023/04/10 12:30:28;;;;;;;;;;;16.70;65.50;;;;;;5068934;28;19924;-63
2023/04/10 12:32:55;;;;;;;;;;;16.80;64.10;;;;;;5066693;28;19925;-64
2023/04/10 12:35:36;;;;;;;;;;;16.80;67.50;;;;;;5065512;28;20655;-63
2023/04/10 12:38:04;;;;;;;;;;;16.80;65.20;;;;;;5066595;28;19951;-63
2023/04/10 12:40:31;;;;;;;;;;;16.70;67.20;;;;;;5069906;28;19924;-63
2023/04/10 12:43:03;;;;;;;;;;;16.50;67.20;;;;;;5071930;28;19943;-63
2023/04/10 12:45:42;;;;;;;;;;;16.40;63.60;;;;;;5073223;28;19920;-63
2023/04/10 12:48:21;;;;;;;;;;;16.40;67.30;;;;;;5071819;28;19979;-63
2023/04/10 12:50:48;;;;;;;;;;;16.40;68.10;;;;;;5070888;28;20371;-63
2023/04/10 12:53:20;;;;;;;;;;;16.40;65.00;;;;;;5071061;28;19928;-63
2023/04/10 12:56:05;;;;;;;;;;;16.50;68.20;;;;;;5037206;28;19970;-63
2023/04/10 12:58:37;;;;;;;;;;;16.70;67.90;;;;;;5068729;28;19924;-63
2023/04/10 13:01:04;;;;;;;;;;;16.40;66.60;;;;;;5071071;28;19921;-63
2023/04/10 13:03:37;;;;;;;;;;;16.60;66.70;;;;;;5052932;28;19924;-63
2023/04/10 13:06:09;;;;;;;;;;;16.80;67.60;;;;;;5072195;28;20420;-63
2023/04/10 13:08:41;;;;;;;;;;;16.80;66.70;;;;;;5074638;28;19928;-63
2023/04/10 13:11:12;;;;;;;;;;;16.80;61.90;;;;;;5074859;28;19970;-63
2023/04/10 13:13:45;;;;;;;;;;;16.90;63.40;;;;;;5073819;28;19989;-63
2023/04/10 13:16:12;;;;;;;;;;;16.80;67.10;;;;;;5074698;28;19924;-63
2023/04/10 13:18:44;;;;;;;;;;;16.90;65.70;;;;;;5074636;28;20385;-63
2023/04/10 13:21:21;;;;;;;;;;;17.00;66.40;;;;;;5056990;28;20281;-63
2023/04/10 13:23:53;;;;;;;;;;;17.10;63.40;;;;;;5072691;28;20327;-63
2023/04/10 13:26:20;;;;;;;;;;;17.20;62.60;;;;;;5073368;28;19939;-63
2023/04/10 13:28:51;;;;;;;;;;;17.30;67.00;;;;;;5056551;28;19970;-63
2023/04/10 13:31:18;;;;;;;;;;;17.50;65.70;;;;;;5074730;28;19944;-64
2023/04/10 13:33:50;;;;;;;;;;;17.60;61.40;;;;;;5056095;28;19928;-63
2023/04/10 13:36:22;;;;;;;;;;;17.50;59.70;;;;;;5074545;28;19928;-63
2023/04/10 13:38:53;;;;;;;;;;;17.60;62.40;;;;;;5055118;28;20388;-63
2023/04/10 13:41:20;;;;;;;;;;;17.70;63.00;;;;;;5074222;28;19987;-63
2023/04/10 13:43:47;;;;;;;;;;;17.80;64.40;;;;;;5073806;28;20344;-63
2023/04/10 13:46:18;;;;;;;;;;;17.90;60.40;;;;;;5073267;28;19998;-63
2023/04/10 13:48:45;;;;;;;;;;;17.80;58.70;;;;;;5073994;28;20415;-63
2023/04/10 13:51:12;;;;;;;;;;;17.80;59.60;;;;;;5056371;28;19944;-63
2023/04/10 13:53:43;;;;;;;;;;;17.80;58.10;;;;;;5056116;28;19921;-63
2023/04/10 13:56:15;;;;;;;;;;;17.90;61.60;;;;;;5056241;28;19990;-63
2023/04/10 13:58:47;;;;;;;;;;;18.00;62.40;;;;;;5073172;28;19924;-62
2023/04/10 14:01:18;;;;;;;;;;;18.10;60.10;;;;;;5056860;28;19920;-63
2023/04/10 14:03:50;;;;;;;;;;;17.70;57.60;;;;;;5074279;28;19931;-63
2023/04/10 14:06:22;;;;;;;;;;;17.50;58.50;;;;;;5072479;28;19924;-63
2023/04/10 14:08:53;;;;;;;;;;;17.60;59.30;;;;;;5072754;28;19924;-63
2023/04/10 14:11:25;;;;;;;;;;;17.80;60.40;;;;;;5055739;28;19928;-63
2023/04/10 14:13:57;;;;;;;;;;;18.10;60.10;;;;;;5070327;28;19921;-63
2023/04/10 14:16:29;;;;;;;;;;;18.40;62.20;;;;;;5073677;28;19931;-63
2023/04/10 14:19:00;;;;;;;;;;;18.50;58.30;;;;;;5072557;28;19970;-63
2023/04/10 14:21:32;;;;;;;;;;;18.80;58.90;;;;;;5073791;28;19920;-63
2023/04/10 14:24:04;;;;;;;;;;;18.90;58.40;;;;;;5073575;28;20574;-63
2023/04/10 14:26:31;;;;;;;;;;;19.10;58.00;;;;;;5073450;28;19921;-64
2023/04/10 14:29:03;;;;;;;;;;;19.30;56.40;;;;;;5073293;28;19924;-64
2023/04/10 14:31:34;;;;;;;;;;;19.50;56.40;;;;;;5054151;28;19920;-64
2023/04/10 14:34:06;;;;;;;;;;;19.70;58.40;;;;;;5073342;28;19951;-62
2023/04/10 14:36:38;;;;;;;;;;;19.70;56.90;;;;;;5073696;28;19920;-64
2023/04/10 14:39:05;;;;;;;;;;;19.60;56.70;;;;;;5073113;28;19924;-64
2023/04/10 14:41:36;;;;;;;;;;;19.60;56.10;;;;;;5073558;28;19932;-63
2023/04/10 14:44:08;;;;;;;;;;;19.60;57.10;;;;;;5072838;28;20009;-64
2023/04/10 14:46:39;;;;;;;;;;;19.70;55.50;;;;;;5073099;28;19924;-64
2023/04/10 14:49:12;;;;;;;;;;;19.90;56.50;;;;;;5070309;28;19920;-64
2023/04/10 14:51:44;;;;;;;;;;;19.90;55.10;;;;;;5072115;28;19944;-64
2023/04/10 14:54:11;;;;;;;;;;;19.80;55.50;;;;;;5072978;28;19932;-63
2023/04/10 14:56:43;;;;;;;;;;;19.70;54.80;;;;;;5072855;28;19924;-64
2023/04/10 14:59:15;;;;;;;;;;;19.70;55.80;;;;;;5071781;28;19950;-63
2023/04/10 15:01:47;;;;;;;;;;;19.90;55.90;;;;;;5071507;28;19920;-63
2023/04/10 15:04:19;;;;;;;;;;;20.10;55.90;;;;;;5054486;28;20442;-63
2023/04/10 15:06:51;;;;;;;;;;;20.20;56.00;;;;;;5072524;28;19928;-64